Time;durP1;ratioP1;P1;durP2;ratioP2;P2;SDS_P1;SDS_P2;PMS_P1;PMS_P2;Temp;Humidity;BMP_temperature;BMP_pressure;BME280_temperature;BME280_humidity;BME280_pressure;Samples;Min_cycle;Max_cycle;Signal;HPM_P1;HPM_P2
2023/01/28 00:00:24;;;;;;;;;;;3.90;99.90;;;;;;5092439;28;20303;-78
2023/01/28 00:02:50;;;;;;;;;;;3.90;99.90;;;;;;5091967;28;20073;-78
2023/01/28 00:05:16;;;;;;;;;;;4.00;99.90;;;;;;5092592;28;19909;-79
2023/01/28 00:07:42;;;;;;;;;;;4.00;99.90;;;;;;5091460;28;19920;-79
2023/01/28 00:10:07;;;;;;;;;;;4.10;99.90;;;;;;5092164;28;20329;-78
2023/01/28 00:12:33;;;;;;;;;;;4.10;99.90;;;;;;5091736;28;19916;-80
2023/01/28 00:14:58;;;;;;;;;;;4.10;99.90;;;;;;5092290;28;19951;-78
2023/01/28 00:17:24;;;;;;;;;;;4.10;99.90;;;;;;5091965;28;19916;-78
2023/01/28 00:19:50;;;;;;;;;;;4.20;99.90;;;;;;5091063;28;19914;-78
2023/01/28 00:22:15;;;;;;;;;;;4.20;99.90;;;;;;5091388;28;19953;-78
2023/01/28 00:24:41;;;;;;;;;;;4.30;99.90;;;;;;5091726;28;19912;-78
2023/01/28 00:27:06;;;;;;;;;;;4.30;99.90;;;;;;5092742;28;20320;-78
2023/01/28 00:29:32;;;;;;;;;;;4.30;99.90;;;;;;5091577;28;19966;-83
2023/01/28 00:31:58;;;;;;;;;;;4.30;99.90;;;;;;5092124;28;19916;-77
2023/01/28 00:34:23;;;;;;;;;;;4.30;99.90;;;;;;5091663;28;20327;-78
2023/01/28 00:36:56;;;;;;;;;;;4.30;99.90;;;;;;5091241;28;20007;-77
2023/01/28 00:39:25;;;;;;;;;;;4.30;99.90;;;;;;5091401;28;19931;-77
2023/01/28 00:41:51;;;;;;;;;;;4.30;99.90;;;;;;5091193;28;20571;-77
2023/01/28 00:44:17;;;;;;;;;;;4.40;99.90;;;;;;5091639;28;20002;-78
2023/01/28 00:46:43;;;;;;;;;;;4.40;99.90;;;;;;5091559;28;19962;-77
2023/01/28 00:49:09;;;;;;;;;;;4.40;99.90;;;;;;5092150;28;19909;-77
2023/01/28 00:51:34;;;;;;;;;;;4.50;99.90;;;;;;5091305;28;20365;-78
2023/01/28 00:54:00;;;;;;;;;;;4.60;99.90;;;;;;5091599;28;19908;-78
2023/01/28 00:56:25;;;;;;;;;;;4.70;99.90;;;;;;5091464;28;19908;-77
2023/01/28 00:58:51;;;;;;;;;;;4.70;99.90;;;;;;5090287;28;20715;-78
2023/01/28 01:01:21;;;;;;;;;;;4.80;99.90;;;;;;5090983;28;20029;-77
2023/01/28 01:03:56;;;;;;;;;;;4.80;99.90;;;;;;5091541;28;20010;-77
2023/01/28 01:06:22;;;;;;;;;;;4.80;99.90;;;;;;5091685;28;20018;-77
2023/01/28 01:08:49;;;;;;;;;;;4.90;99.90;;;;;;5091180;28;20025;-77
2023/01/28 01:11:14;;;;;;;;;;;4.90;99.90;;;;;;5091607;28;19916;-77
2023/01/28 01:13:40;;;;;;;;;;;4.90;99.90;;;;;;5091365;28;19909;-78
2023/01/28 01:16:10;;;;;;;;;;;4.90;99.90;;;;;;5091825;28;20006;-78
2023/01/28 01:18:40;;;;;;;;;;;4.90;99.90;;;;;;5091260;28;20290;-78
2023/01/28 01:21:07;;;;;;;;;;;4.80;99.90;;;;;;5091527;28;19909;-76
2023/01/28 01:23:33;;;;;;;;;;;4.80;99.90;;;;;;5089830;28;20195;-84
2023/01/28 01:25:58;;;;;;;;;;;4.80;99.90;;;;;;5091323;28;19915;-77
2023/01/28 01:28:24;;;;;;;;;;;4.70;99.90;;;;;;5091093;28;20045;-78
2023/01/28 01:30:49;;;;;;;;;;;4.80;99.90;;;;;;5090905;28;19963;-76
2023/01/28 01:33:15;;;;;;;;;;;4.80;99.90;;;;;;5091287;28;19977;-77
2023/01/28 01:35:41;;;;;;;;;;;4.80;99.90;;;;;;5090497;28;20246;-77
2023/01/28 01:38:06;;;;;;;;;;;4.80;99.90;;;;;;5091285;28;19908;-77
2023/01/28 01:40:32;;;;;;;;;;;4.90;99.90;;;;;;5091300;28;20353;-77
2023/01/28 01:42:57;;;;;;;;;;;4.90;99.90;;;;;;5090574;28;20036;-78
2023/01/28 01:45:23;;;;;;;;;;;4.90;99.90;;;;;;5091630;28;19908;-77
2023/01/28 01:47:57;;;;;;;;;;;4.90;99.90;;;;;;5091087;28;19916;-78
2023/01/28 01:50:28;;;;;;;;;;;4.90;99.90;;;;;;5090908;28;20257;-77
2023/01/28 01:52:55;;;;;;;;;;;4.90;99.90;;;;;;5090605;28;19923;-78
2023/01/28 01:55:23;;;;;;;;;;;4.90;99.90;;;;;;5089950;28;20322;-77
2023/01/28 01:57:50;;;;;;;;;;;4.90;99.90;;;;;;5090523;28;19931;-77
2023/01/28 02:00:16;;;;;;;;;;;4.90;99.90;;;;;;5089775;28;19923;-79
2023/01/28 02:02:44;;;;;;;;;;;4.90;99.90;;;;;;5090299;28;19934;-76
2023/01/28 02:05:11;;;;;;;;;;;5.00;99.90;;;;;;5090578;28;20002;-76
2023/01/28 02:07:37;;;;;;;;;;;5.10;99.90;;;;;;5090071;28;19920;-84
2023/01/28 02:10:04;;;;;;;;;;;5.10;99.90;;;;;;5090877;28;19931;-77
2023/01/28 02:12:33;;;;;;;;;;;5.10;99.90;;;;;;5090688;28;20402;-77
2023/01/28 02:15:05;;;;;;;;;;;5.20;99.90;;;;;;5090436;28;19912;-77
2023/01/28 02:17:30;;;;;;;;;;;5.20;99.90;;;;;;5090462;28;19908;-77
2023/01/28 02:20:25;;;;;;;;;;;5.20;99.90;;;;;;5090560;28;19916;-77
2023/01/28 02:22:51;;;;;;;;;;;5.20;99.90;;;;;;5081396;28;19912;-77
2023/01/28 02:25:19;;;;;;;;;;;5.20;99.90;;;;;;5090753;28;20254;-77
2023/01/28 02:27:48;;;;;;;;;;;5.20;99.90;;;;;;5090451;28;20245;-77
2023/01/28 02:30:18;;;;;;;;;;;5.20;99.90;;;;;;5090884;28;20397;-77
2023/01/28 02:33:02;;;;;;;;;;;5.20;99.90;;;;;;5090233;28;19980;-77
2023/01/28 02:35:37;;;;;;;;;;;5.20;99.90;;;;;;5091013;28;20041;-78
2023/01/28 02:38:07;;;;;;;;;;;5.20;99.90;;;;;;5090767;28;19912;-77
2023/01/28 02:41:00;;;;;;;;;;;5.20;99.90;;;;;;5090573;28;19958;-77
2023/01/28 02:43:28;;;;;;;;;;;5.10;99.90;;;;;;5090202;28;20387;-77
2023/01/28 02:48:38;;;;;;;;;;;5.10;99.90;;;;;;5094913;28;19916;-77
2023/01/28 02:51:15;;;;;;;;;;;5.00;99.90;;;;;;5094620;28;20352;-78
2023/01/28 02:53:49;;;;;;;;;;;5.00;99.90;;;;;;5094772;28;19908;-85
2023/01/28 02:56:28;;;;;;;;;;;5.00;99.90;;;;;;5094886;28;19908;-77
2023/01/28 02:58:59;;;;;;;;;;;4.90;99.90;;;;;;5094587;28;19930;-78
2023/01/28 03:01:30;;;;;;;;;;;4.90;99.90;;;;;;5095011;28;19908;-77
2023/01/28 03:03:58;;;;;;;;;;;4.90;99.90;;;;;;5094564;28;20333;-77
2023/01/28 03:06:37;;;;;;;;;;;4.90;99.90;;;;;;5076111;28;19909;-77
2023/01/28 03:09:24;;;;;;;;;;;4.90;99.90;;;;;;5094207;28;19924;-77
2023/01/28 03:37:02;;;;;;;;;;;5.00;99.90;;;;;;5093050;28;19977;-78
2023/01/28 03:39:28;;;;;;;;;;;5.00;99.90;;;;;;5093358;28;19908;-79
2023/01/28 03:42:04;;;;;;;;;;;5.00;99.90;;;;;;5092886;28;19969;-78
2023/01/28 03:47:14;;;;;;;;;;;5.00;99.90;;;;;;5093334;28;19919;-78
2023/01/28 03:49:40;;;;;;;;;;;5.00;99.90;;;;;;5093060;28;20325;-78
2023/01/28 03:52:06;;;;;;;;;;;5.00;99.90;;;;;;5092767;28;19916;-78
2023/01/28 03:54:32;;;;;;;;;;;5.00;99.90;;;;;;5093231;28;19970;-78
2023/01/28 03:56:57;;;;;;;;;;;5.00;99.90;;;;;;5092618;28;20049;-77
2023/01/28 03:59:23;;;;;;;;;;;5.00;99.90;;;;;;5093440;28;19908;-78
2023/01/28 04:01:49;;;;;;;;;;;5.10;99.90;;;;;;5092862;28;20269;-79
2023/01/28 04:04:22;;;;;;;;;;;5.10;99.90;;;;;;5093599;28;19915;-78
2023/01/28 04:06:48;;;;;;;;;;;5.10;99.90;;;;;;5092717;28;20390;-79
2023/01/28 04:09:14;;;;;;;;;;;5.10;99.90;;;;;;5093274;28;19994;-78
2023/01/28 04:11:39;;;;;;;;;;;5.10;99.90;;;;;;5091682;28;20003;-78
2023/01/28 04:14:05;;;;;;;;;;;5.10;99.90;;;;;;5092070;28;19912;-78
2023/01/28 04:16:30;;;;;;;;;;;5.20;99.90;;;;;;5092480;28;19912;-77
2023/01/28 04:18:57;;;;;;;;;;;5.20;99.90;;;;;;5090451;28;19919;-77
2023/01/28 04:21:23;;;;;;;;;;;5.20;99.90;;;;;;5092289;28;19912;-76
2023/01/28 04:23:48;;;;;;;;;;;5.20;99.90;;;;;;5091697;28;19954;-79
2023/01/28 04:26:14;;;;;;;;;;;5.20;99.90;;;;;;5092291;28;19919;-77
2023/01/28 04:28:39;;;;;;;;;;;5.30;99.90;;;;;;5092424;28;20309;-77
2023/01/28 04:31:05;;;;;;;;;;;5.30;99.90;;;;;;5091869;28;20664;-77
2023/01/28 04:33:31;;;;;;;;;;;5.30;99.90;;;;;;5092327;28;19995;-79
2023/01/28 04:35:56;;;;;;;;;;;5.30;99.90;;;;;;5091892;28;20008;-77
2023/01/28 04:38:22;;;;;;;;;;;5.20;99.90;;;;;;5092278;28;19908;-77
2023/01/28 04:40:51;;;;;;;;;;;5.20;99.90;;;;;;5092241;28;19915;-84
2023/01/28 04:43:16;;;;;;;;;;;5.20;99.90;;;;;;5092107;28;19908;-77
2023/01/28 04:45:42;;;;;;;;;;;5.20;99.90;;;;;;5092344;28;20006;-78
2023/01/28 04:48:08;;;;;;;;;;;5.20;99.90;;;;;;5091747;28;20187;-78
2023/01/28 04:50:33;;;;;;;;;;;5.20;99.90;;;;;;5092059;28;19908;-77
2023/01/28 04:52:59;;;;;;;;;;;5.20;99.90;;;;;;5091408;28;20265;-77
2023/01/28 04:55:24;;;;;;;;;;;5.20;99.90;;;;;;5091939;28;19909;-77
2023/01/28 04:57:50;;;;;;;;;;;5.20;99.90;;;;;;5091579;28;19926;-84
2023/01/28 05:00:16;;;;;;;;;;;5.20;99.90;;;;;;5092331;28;19908;-77
2023/01/28 05:02:41;;;;;;;;;;;5.30;99.90;;;;;;5091761;28;20290;-77
2023/01/28 05:05:10;;;;;;;;;;;5.30;99.90;;;;;;5091242;28;19972;-77
2023/01/28 05:07:35;;;;;;;;;;;5.30;99.90;;;;;;5091053;28;19927;-77
2023/01/28 05:10:01;;;;;;;;;;;5.30;99.90;;;;;;5091071;28;19912;-77
2023/01/28 05:12:27;;;;;;;;;;;5.30;99.90;;;;;;5092091;28;19938;-78
2023/01/28 05:14:52;;;;;;;;;;;5.30;99.90;;;;;;5091312;28;20368;-78
2023/01/28 05:17:18;;;;;;;;;;;5.30;99.90;;;;;;5091999;28;19944;-77
2023/01/28 05:19:45;;;;;;;;;;;5.40;99.90;;;;;;5091825;28;19923;-77
2023/01/28 05:22:10;;;;;;;;;;;5.40;99.90;;;;;;5091231;28;19957;-77
2023/01/28 05:24:36;;;;;;;;;;;5.40;99.90;;;;;;5091648;28;19908;-78
2023/01/28 05:27:02;;;;;;;;;;;5.40;99.90;;;;;;5091185;28;19909;-78
2023/01/28 05:29:27;;;;;;;;;;;5.50;99.90;;;;;;5091644;28;20302;-77
2023/01/28 05:31:53;;;;;;;;;;;5.50;99.90;;;;;;5091021;28;20325;-85
2023/01/28 05:34:18;;;;;;;;;;;5.50;99.90;;;;;;5091902;28;19931;-77
2023/01/28 05:36:44;;;;;;;;;;;5.50;99.90;;;;;;5091667;28;19915;-78
2023/01/28 05:39:09;;;;;;;;;;;5.50;99.90;;;;;;5091035;28;19950;-78
2023/01/28 05:41:35;;;;;;;;;;;5.50;99.90;;;;;;5091774;28;20376;-80
2023/01/28 05:44:00;;;;;;;;;;;5.60;99.90;;;;;;5090837;28;19964;-78
2023/01/28 05:46:26;;;;;;;;;;;5.60;99.90;;;;;;5091675;28;19931;-78
2023/01/28 05:48:52;;;;;;;;;;;5.60;99.90;;;;;;5091138;28;20006;-85
2023/01/28 05:51:17;;;;;;;;;;;5.60;99.90;;;;;;5090928;28;19923;-78
2023/01/28 05:53:43;;;;;;;;;;;5.60;99.90;;;;;;5091105;28;19908;-77
2023/01/28 05:56:08;;;;;;;;;;;5.60;99.90;;;;;;5090660;28;19934;-77
2023/01/28 05:58:34;;;;;;;;;;;5.60;99.90;;;;;;5091444;28;20269;-78
2023/01/28 06:00:59;;;;;;;;;;;5.60;99.90;;;;;;5090576;28;19908;-76
2023/01/28 06:03:25;;;;;;;;;;;5.60;99.90;;;;;;5090843;28;19954;-76
2023/01/28 06:05:51;;;;;;;;;;;5.60;99.90;;;;;;5090765;28;19912;-76
2023/01/28 06:08:16;;;;;;;;;;;5.60;99.90;;;;;;5090595;28;20288;-78
2023/01/28 06:10:42;;;;;;;;;;;5.60;99.90;;;;;;5090889;28;19969;-76
2023/01/28 06:13:07;;;;;;;;;;;5.50;99.90;;;;;;5090018;28;19998;-77
2023/01/28 06:15:33;;;;;;;;;;;5.60;99.90;;;;;;5091078;28;19916;-78
2023/01/28 06:17:58;;;;;;;;;;;5.60;99.90;;;;;;5090264;28;20329;-77
2023/01/28 06:20:24;;;;;;;;;;;5.60;99.90;;;;;;5094952;28;19953;-76
2023/01/28 06:22:50;;;;;;;;;;;5.50;99.90;;;;;;5094731;28;19915;-76
2023/01/28 06:25:16;;;;;;;;;;;5.60;99.90;;;;;;5094147;28;19990;-77
2023/01/28 06:27:41;;;;;;;;;;;5.60;99.90;;;;;;5095028;28;20392;-77
2023/01/28 06:30:07;;;;;;;;;;;5.60;99.90;;;;;;5094122;28;19908;-78
2023/01/28 06:32:33;;;;;;;;;;;5.50;99.90;;;;;;5094878;28;19916;-77
2023/01/28 06:34:58;;;;;;;;;;;5.50;99.90;;;;;;5093705;28;19977;-77
2023/01/28 06:37:25;;;;;;;;;;;5.50;99.90;;;;;;5094650;28;20344;-77
2023/01/28 06:39:50;;;;;;;;;;;5.50;99.90;;;;;;5094736;28;19922;-77
2023/01/28 06:42:16;;;;;;;;;;;5.60;99.90;;;;;;5093953;28;19908;-77
2023/01/28 06:44:41;;;;;;;;;;;5.60;99.90;;;;;;5094765;28;19908;-76
2023/01/28 06:47:08;;;;;;;;;;;5.60;99.90;;;;;;5094004;28;19961;-77
2023/01/28 06:49:34;;;;;;;;;;;5.60;99.90;;;;;;5094686;28;20016;-77
2023/01/28 06:51:59;;;;;;;;;;;5.60;99.90;;;;;;5094220;28;19978;-77
2023/01/28 06:54:25;;;;;;;;;;;5.60;99.90;;;;;;5094443;28;19923;-77
2023/01/28 06:56:50;;;;;;;;;;;5.70;99.90;;;;;;5094481;28;19917;-76
2023/01/28 06:59:16;;;;;;;;;;;5.70;99.90;;;;;;5094394;28;20750;-77
2023/01/28 07:01:41;;;;;;;;;;;5.70;99.90;;;;;;5094830;28;19908;-77
2023/01/28 07:04:07;;;;;;;;;;;5.70;99.90;;;;;;5092459;28;19980;-77
2023/01/28 07:06:33;;;;;;;;;;;5.70;99.90;;;;;;5094440;28;19997;-78
2023/01/28 07:08:58;;;;;;;;;;;5.70;99.90;;;;;;5093748;28;19990;-85
2023/01/28 07:11:24;;;;;;;;;;;5.70;99.90;;;;;;5094053;28;19923;-77
2023/01/28 07:13:50;;;;;;;;;;;5.70;99.90;;;;;;5093893;28;19974;-77
2023/01/28 07:16:16;;;;;;;;;;;5.70;99.90;;;;;;5093855;28;19908;-77
2023/01/28 07:18:41;;;;;;;;;;;5.70;99.90;;;;;;5093972;28;19973;-77
2023/01/28 07:21:07;;;;;;;;;;;5.70;99.90;;;;;;5094074;28;19908;-78
2023/01/28 07:23:32;;;;;;;;;;;5.70;99.90;;;;;;5093814;28;19915;-78
2023/01/28 07:26:01;;;;;;;;;;;5.80;99.90;;;;;;5093846;28;19912;-78
2023/01/28 07:28:27;;;;;;;;;;;5.80;99.90;;;;;;5094232;28;20324;-76
2023/01/28 07:30:52;;;;;;;;;;;5.80;99.90;;;;;;5093559;28;19936;-77
2023/01/28 07:33:18;;;;;;;;;;;5.80;99.90;;;;;;5093569;28;19922;-77
2023/01/28 07:35:44;;;;;;;;;;;5.80;99.90;;;;;;5093752;28;19944;-77
2023/01/28 07:38:10;;;;;;;;;;;5.90;99.90;;;;;;5093804;28;20003;-77
2023/01/28 07:40:36;;;;;;;;;;;5.90;99.90;;;;;;5094613;28;20049;-78
2023/01/28 07:43:01;;;;;;;;;;;5.90;99.90;;;;;;5093766;28;19909;-85
2023/01/28 07:45:29;;;;;;;;;;;5.90;99.90;;;;;;5094498;28;19912;-78
2023/01/28 07:47:59;;;;;;;;;;;5.90;99.90;;;;;;5093612;28;19991;-76
2023/01/28 07:50:25;;;;;;;;;;;5.90;99.90;;;;;;5092646;28;20281;-76
2023/01/28 07:52:50;;;;;;;;;;;6.00;99.90;;;;;;5093114;28;19916;-78
2023/01/28 07:55:16;;;;;;;;;;;6.00;99.90;;;;;;5092737;28;19912;-77
2023/01/28 07:57:49;;;;;;;;;;;6.00;99.90;;;;;;5093335;28;19930;-78
2023/01/28 08:00:15;;;;;;;;;;;6.00;99.90;;;;;;5091279;28;19916;-78
2023/01/28 08:02:40;;;;;;;;;;;6.00;99.90;;;;;;5093408;28;19913;-78
2023/01/28 08:05:06;;;;;;;;;;;6.00;99.90;;;;;;5093249;28;20395;-78
2023/01/28 08:07:31;;;;;;;;;;;6.00;99.90;;;;;;5093312;28;20281;-78
2023/01/28 08:09:57;;;;;;;;;;;6.00;99.90;;;;;;5093993;28;20258;-78
2023/01/28 08:12:23;;;;;;;;;;;6.00;99.90;;;;;;5092880;28;19939;-78
2023/01/28 08:14:49;;;;;;;;;;;6.00;99.90;;;;;;5093732;28;19951;-77
2023/01/28 08:17:14;;;;;;;;;;;6.00;99.90;;;;;;5092761;28;19915;-78
2023/01/28 08:19:40;;;;;;;;;;;6.00;99.90;;;;;;5093422;28;19908;-78
2023/01/28 08:22:05;;;;;;;;;;;6.00;99.90;;;;;;5092927;28;19944;-82
2023/01/28 08:24:31;;;;;;;;;;;6.10;99.90;;;;;;5092878;28;19916;-78
2023/01/28 08:26:56;;;;;;;;;;;6.10;99.90;;;;;;5091814;28;20318;-78
2023/01/28 08:29:22;;;;;;;;;;;6.10;99.90;;;;;;5092604;28;20361;-79
2023/01/28 08:31:47;;;;;;;;;;;6.10;99.90;;;;;;5092823;28;19916;-79
2023/01/28 08:34:13;;;;;;;;;;;6.10;99.90;;;;;;5092527;28;19908;-78
2023/01/28 08:36:38;;;;;;;;;;;6.20;99.90;;;;;;5092515;28;20380;-76
2023/01/28 08:39:04;;;;;;;;;;;6.10;99.90;;;;;;5092073;28;19923;-85
2023/01/28 08:41:30;;;;;;;;;;;6.10;99.90;;;;;;5091675;28;19999;-78
2023/01/28 08:43:56;;;;;;;;;;;6.20;99.90;;;;;;5091345;28;19920;-78
2023/01/28 08:46:21;;;;;;;;;;;6.10;99.90;;;;;;5091986;28;19953;-78
2023/01/28 08:48:48;;;;;;;;;;;6.10;99.90;;;;;;5092006;28;20373;-78
2023/01/28 08:51:14;;;;;;;;;;;6.10;99.90;;;;;;5091595;28;19920;-79
2023/01/28 08:53:39;;;;;;;;;;;6.10;99.90;;;;;;5091678;28;20333;-78
2023/01/28 08:56:05;;;;;;;;;;;6.10;99.90;;;;;;5091951;28;19965;-86
2023/01/28 08:58:31;;;;;;;;;;;6.10;99.90;;;;;;5091438;28;19966;-77
2023/01/28 09:00:56;;;;;;;;;;;6.10;99.90;;;;;;5092196;28;20344;-77
2023/01/28 09:03:22;;;;;;;;;;;6.00;99.90;;;;;;5091601;28;20324;-78
2023/01/28 09:05:49;;;;;;;;;;;6.00;99.90;;;;;;5091986;28;19909;-77
2023/01/28 09:08:15;;;;;;;;;;;6.00;99.90;;;;;;5089406;28;19927;-77
2023/01/28 09:10:41;;;;;;;;;;;6.10;99.90;;;;;;5091581;28;19908;-77
2023/01/28 09:13:10;;;;;;;;;;;6.10;99.90;;;;;;5091141;28;19916;-83
2023/01/28 09:15:36;;;;;;;;;;;6.10;99.90;;;;;;5091740;28;19909;-78
2023/01/28 09:18:02;;;;;;;;;;;6.20;99.90;;;;;;5091904;28;19909;-77
2023/01/28 09:20:28;;;;;;;;;;;6.20;99.90;;;;;;5091121;28;19935;-78
2023/01/28 09:22:53;;;;;;;;;;;6.20;99.90;;;;;;5091635;28;20241;-76
2023/01/28 09:25:19;;;;;;;;;;;6.30;99.90;;;;;;5090877;28;19953;-77
2023/01/28 09:27:45;;;;;;;;;;;6.40;99.90;;;;;;5091181;28;20384;-76
2023/01/28 09:30:12;;;;;;;;;;;6.40;99.90;;;;;;5090677;28;19916;-84
2023/01/28 09:32:38;;;;;;;;;;;6.50;99.90;;;;;;5091290;28;19942;-76
2023/01/28 09:35:04;;;;;;;;;;;6.60;99.90;;;;;;5091008;28;19914;-76
2023/01/28 09:37:29;;;;;;;;;;;6.60;99.90;;;;;;5090229;28;19977;-76
2023/01/28 09:39:55;;;;;;;;;;;6.70;99.90;;;;;;5091135;28;20008;-76
2023/01/28 09:42:30;;;;;;;;;;;6.70;99.90;;;;;;5090745;28;19912;-76
2023/01/28 09:45:08;;;;;;;;;;;6.70;99.90;;;;;;5091807;28;20045;-77
2023/01/28 09:47:36;;;;;;;;;;;6.80;99.90;;;;;;5090898;28;19942;-77
2023/01/28 09:50:05;;;;;;;;;;;6.80;99.90;;;;;;5090871;28;19908;-77
2023/01/28 09:52:33;;;;;;;;;;;6.80;99.90;;;;;;5090089;28;20346;-77
2023/01/28 09:55:01;;;;;;;;;;;6.80;99.90;;;;;;5090950;28;20005;-78
2023/01/28 09:57:36;;;;;;;;;;;6.90;99.90;;;;;;5090107;28;19908;-77
2023/01/28 10:00:02;;;;;;;;;;;6.90;99.90;;;;;;5090678;28;19912;-77
2023/01/28 10:02:46;;;;;;;;;;;6.90;99.90;;;;;;5089810;28;20246;-78
2023/01/28 10:05:12;;;;;;;;;;;6.90;99.90;;;;;;5089452;28;20013;-84
2023/01/28 10:07:41;;;;;;;;;;;7.00;99.90;;;;;;5090388;28;20313;-77
2023/01/28 10:10:26;;;;;;;;;;;7.00;99.90;;;;;;5090290;28;20396;-78
2023/01/28 10:13:01;;;;;;;;;;;7.00;99.90;;;;;;5091157;28;19920;-76
2023/01/28 10:15:35;;;;;;;;;;;7.00;99.90;;;;;;5089827;28;19916;-76
2023/01/28 10:18:08;;;;;;;;;;;7.00;99.90;;;;;;5091262;28;19912;-77
2023/01/28 10:20:40;;;;;;;;;;;7.10;99.90;;;;;;5089472;28;19912;-77
2023/01/28 10:23:11;;;;;;;;;;;7.10;99.90;;;;;;5090083;28;19908;-76
2023/01/28 10:25:39;;;;;;;;;;;7.10;99.90;;;;;;5090667;28;20029;-77
2023/01/28 10:28:08;;;;;;;;;;;7.10;99.90;;;;;;5090044;28;19908;-77
2023/01/28 10:30:34;;;;;;;;;;;7.10;99.90;;;;;;5091532;28;19909;-77
2023/01/28 10:33:02;;;;;;;;;;;7.10;99.90;;;;;;5090345;28;19969;-77
2023/01/28 10:35:30;;;;;;;;;;;7.10;99.90;;;;;;5089354;28;19935;-77
2023/01/28 10:38:01;;;;;;;;;;;7.10;99.90;;;;;;5090142;28;19987;-77
2023/01/28 10:40:27;;;;;;;;;;;7.20;99.90;;;;;;5090491;28;19908;-79
2023/01/28 10:42:52;;;;;;;;;;;7.20;99.90;;;;;;5090777;28;19915;-78
2023/01/28 10:45:23;;;;;;;;;;;7.20;99.90;;;;;;5088437;28;19978;-79
2023/01/28 10:47:54;;;;;;;;;;;7.20;99.90;;;;;;5090535;28;19919;-78
2023/01/28 10:50:24;;;;;;;;;;;7.20;99.90;;;;;;5088974;28;20312;-77
2023/01/28 10:52:58;;;;;;;;;;;7.20;99.90;;;;;;5090079;28;19962;-78
2023/01/28 10:55:29;;;;;;;;;;;7.30;99.90;;;;;;5089367;28;19912;-78
2023/01/28 10:57:55;;;;;;;;;;;7.30;99.90;;;;;;5090145;28;20386;-78
2023/01/28 11:00:24;;;;;;;;;;;7.40;99.90;;;;;;5089311;28;19912;-77
2023/01/28 11:02:49;;;;;;;;;;;7.40;99.90;;;;;;5090149;28;19920;-78
2023/01/28 11:05:16;;;;;;;;;;;7.50;99.90;;;;;;5090792;28;19961;-79
2023/01/28 11:07:42;;;;;;;;;;;7.50;99.90;;;;;;5093284;28;19920;-80
2023/01/28 11:10:26;;;;;;;;;;;7.50;99.90;;;;;;5094193;28;19908;-78
2023/01/28 11:12:55;;;;;;;;;;;7.60;99.90;;;;;;5093806;28;20018;-78
2023/01/28 11:15:21;;;;;;;;;;;7.60;99.90;;;;;;5093677;28;19908;-77
2023/01/28 11:17:50;;;;;;;;;;;7.70;99.90;;;;;;5094435;28;19908;-77
2023/01/28 11:20:21;;;;;;;;;;;7.70;99.90;;;;;;5094595;28;19950;-78
2023/01/28 11:22:47;;;;;;;;;;;7.70;99.90;;;;;;5093955;28;19909;-77
2023/01/28 11:25:16;;;;;;;;;;;7.80;99.90;;;;;;5092434;28;19953;-82
2023/01/28 11:27:45;;;;;;;;;;;7.80;99.90;;;;;;5092914;28;20311;-76
2023/01/28 11:30:25;;;;;;;;;;;7.90;99.90;;;;;;5093412;28;19955;-76
2023/01/28 11:32:55;;;;;;;;;;;7.80;99.90;;;;;;5093269;28;20015;-78
2023/01/28 11:35:29;;;;;;;;;;;7.90;99.90;;;;;;5093104;28;19961;-78
2023/01/28 11:37:54;;;;;;;;;;;8.00;99.90;;;;;;5093831;28;19970;-77
2023/01/28 11:40:20;;;;;;;;;;;8.00;99.90;;;;;;5094473;28;20311;-77
2023/01/28 11:42:47;;;;;;;;;;;8.10;99.90;;;;;;5094219;28;19994;-77
2023/01/28 11:45:17;;;;;;;;;;;8.10;99.90;;;;;;5094551;28;19958;-84
2023/01/28 11:47:46;;;;;;;;;;;8.10;99.90;;;;;;5093796;28;19931;-79
2023/01/28 11:50:14;;;;;;;;;;;8.20;99.90;;;;;;5094695;28;19919;-77
2023/01/28 11:52:40;;;;;;;;;;;8.10;99.90;;;;;;5093884;28;19920;-78
2023/01/28 11:55:24;;;;;;;;;;;8.20;99.90;;;;;;5094534;28;19912;-78
2023/01/28 11:58:04;;;;;;;;;;;8.10;99.90;;;;;;5094247;28;19908;-78
2023/01/28 12:00:42;;;;;;;;;;;8.20;99.90;;;;;;5091781;28;20276;-78
2023/01/28 12:03:26;;;;;;;;;;;8.20;99.90;;;;;;5093870;28;20012;-78
2023/01/28 12:05:54;;;;;;;;;;;8.20;99.90;;;;;;5092267;28;19948;-78
2023/01/28 12:08:24;;;;;;;;;;;8.10;99.90;;;;;;5093256;28;20344;-78
2023/01/28 12:11:12;;;;;;;;;;;8.10;99.90;;;;;;5093418;28;19988;-78
2023/01/28 12:13:41;;;;;;;;;;;8.10;99.90;;;;;;5087312;28;19908;-78
2023/01/28 12:16:10;;;;;;;;;;;8.10;99.90;;;;;;5093297;28;20226;-78
2023/01/28 12:19:07;;;;;;;;;;;8.10;99.90;;;;;;5092039;28;19961;-78
2023/01/28 12:21:48;;;;;;;;;;;8.10;99.90;;;;;;5067758;28;19916;-77
2023/01/28 12:24:21;;;;;;;;;;;8.10;99.90;;;;;;5092702;28;19915;-82
2023/01/28 12:27:06;;;;;;;;;;;8.20;99.90;;;;;;5093246;28;20280;-77
2023/01/28 12:29:37;;;;;;;;;;;8.30;99.90;;;;;;5091949;28;19919;-78
2023/01/28 12:32:09;;;;;;;;;;;8.20;99.90;;;;;;5092920;28;20292;-77
2023/01/28 12:34:34;;;;;;;;;;;8.30;99.90;;;;;;5091512;28;19923;-77
2023/01/28 12:37:06;;;;;;;;;;;8.30;99.90;;;;;;5092672;28;19908;-76
2023/01/28 12:40:06;;;;;;;;;;;8.20;99.90;;;;;;5092058;28;20353;-76
2023/01/28 12:42:44;;;;;;;;;;;8.20;99.90;;;;;;5049095;28;19917;-78
2023/01/28 12:45:26;;;;;;;;;;;8.20;99.90;;;;;;5086999;28;19908;-76
2023/01/28 12:48:10;;;;;;;;;;;8.20;99.90;;;;;;5092062;28;19912;-76
2023/01/28 12:50:40;;;;;;;;;;;8.20;99.90;;;;;;5090894;28;19965;-76
2023/01/28 12:53:16;;;;;;;;;;;8.20;99.90;;;;;;5091933;28;19916;-76
2023/01/28 12:55:45;;;;;;;;;;;8.20;99.90;;;;;;5092157;28;19912;-76
2023/01/28 12:58:14;;;;;;;;;;;8.30;99.90;;;;;;5091524;28;19908;-76
2023/01/28 13:00:44;;;;;;;;;;;8.30;99.90;;;;;;5091673;28;19908;-77
2023/01/28 13:03:28;;;;;;;;;;;8.30;99.90;;;;;;5091341;28;19908;-76
2023/01/28 13:05:59;;;;;;;;;;;8.30;99.90;;;;;;5091018;28;20368;-77
2023/01/28 13:08:26;;;;;;;;;;;8.30;99.90;;;;;;5090685;28;20018;-78
2023/01/28 13:10:53;;;;;;;;;;;8.30;99.90;;;;;;5091406;28;19912;-77
2023/01/28 13:13:27;;;;;;;;;;;8.30;99.90;;;;;;5089950;28;21498;-78
2023/01/28 13:15:52;;;;;;;;;;;8.30;99.90;;;;;;5091625;28;20272;-77
2023/01/28 13:18:36;;;;;;;;;;;8.30;99.90;;;;;;5092771;28;19965;-85
2023/01/28 13:21:02;;;;;;;;;;;8.30;99.90;;;;;;5091794;28;19965;-77
2023/01/28 13:23:42;;;;;;;;;;;8.30;99.90;;;;;;5092191;28;19912;-77
2023/01/28 13:26:19;;;;;;;;;;;8.20;99.90;;;;;;5093633;28;19908;-78
2023/01/28 13:28:45;;;;;;;;;;;8.20;99.90;;;;;;5090734;28;19919;-77
2023/01/28 13:31:16;;;;;;;;;;;8.30;99.90;;;;;;5091337;28;20004;-79
2023/01/28 13:33:44;;;;;;;;;;;8.20;99.90;;;;;;5090483;28;19920;-77
2023/01/28 13:36:28;;;;;;;;;;;8.30;99.90;;;;;;5091104;28;19994;-77
2023/01/28 13:39:14;;;;;;;;;;;8.30;99.90;;;;;;5091333;28;19916;-77
2023/01/28 13:41:44;;;;;;;;;;;8.20;99.90;;;;;;5090362;28;20085;-77
2023/01/28 13:44:25;;;;;;;;;;;8.20;99.90;;;;;;5090779;28;19908;-77
2023/01/28 13:46:55;;;;;;;;;;;8.20;99.90;;;;;;5090804;28;19951;-78
2023/01/28 13:49:47;;;;;;;;;;;8.10;99.90;;;;;;5090409;28;19915;-79
2023/01/28 13:52:15;;;;;;;;;;;8.10;99.90;;;;;;5074247;28;19912;-77
2023/01/28 13:54:46;;;;;;;;;;;8.00;99.90;;;;;;5090428;28;19919;-76
2023/01/28 13:57:35;;;;;;;;;;;8.00;99.90;;;;;;5090930;28;20376;-76
2023/01/28 14:00:01;;;;;;;;;;;8.00;99.90;;;;;;5090796;28;19912;-76
2023/01/28 14:02:42;;;;;;;;;;;7.90;99.90;;;;;;5090777;28;19915;-77
2023/01/28 14:05:10;;;;;;;;;;;8.00;99.90;;;;;;5091094;28;19909;-78
2023/01/28 14:08:02;;;;;;;;;;;8.00;99.90;;;;;;5090844;28;19952;-77
2023/01/28 14:10:30;;;;;;;;;;;8.00;99.90;;;;;;5074400;28;19966;-78
2023/01/28 14:13:14;;;;;;;;;;;8.00;99.90;;;;;;5091530;28;19912;-76
2023/01/28 14:15:58;;;;;;;;;;;8.00;99.90;;;;;;5090670;28;19912;-76
2023/01/28 14:18:25;;;;;;;;;;;8.00;99.90;;;;;;5090573;28;19962;-77
2023/01/28 14:20:52;;;;;;;;;;;7.90;99.90;;;;;;5091249;28;19912;-76
2023/01/28 14:23:20;;;;;;;;;;;8.00;99.90;;;;;;5090959;28;19908;-83
2023/01/28 14:25:46;;;;;;;;;;;8.00;99.90;;;;;;5091127;28;19915;-77
2023/01/28 14:28:16;;;;;;;;;;;8.00;99.90;;;;;;5091384;28;19908;-76
2023/01/28 14:30:46;;;;;;;;;;;7.90;99.90;;;;;;5090555;28;19942;-76
2023/01/28 14:33:12;;;;;;;;;;;7.90;99.90;;;;;;5090587;28;19924;-78
2023/01/28 14:35:39;;;;;;;;;;;7.90;99.90;;;;;;5090738;28;19995;-77
2023/01/28 14:38:11;;;;;;;;;;;8.00;99.90;;;;;;5090981;28;19951;-78
2023/01/28 14:40:38;;;;;;;;;;;7.90;99.90;;;;;;5092861;28;20790;-77
2023/01/28 14:43:05;;;;;;;;;;;8.00;99.90;;;;;;5093781;28;19915;-80
2023/01/28 14:45:34;;;;;;;;;;;7.90;99.90;;;;;;5093527;28;19919;-77
2023/01/28 14:48:00;;;;;;;;;;;7.90;99.90;;;;;;5094954;28;19914;-77
2023/01/28 14:50:25;;;;;;;;;;;8.00;99.90;;;;;;5094713;28;19908;-78
2023/01/28 14:52:54;;;;;;;;;;;8.00;99.90;;;;;;5094873;28;20006;-78
2023/01/28 14:55:29;;;;;;;;;;;7.90;99.90;;;;;;5094616;28;19923;-85
2023/01/28 14:57:57;;;;;;;;;;;7.90;99.90;;;;;;5094940;28;19953;-77
2023/01/28 15:00:24;;;;;;;;;;;7.90;99.90;;;;;;5094659;28;19915;-81
2023/01/28 15:02:49;;;;;;;;;;;7.90;99.90;;;;;;5094911;28;19961;-78
2023/01/28 15:05:22;;;;;;;;;;;7.90;99.90;;;;;;5095544;28;19908;-77
2023/01/28 15:07:48;;;;;;;;;;;7.90;99.90;;;;;;5095022;28;19924;-76
2023/01/28 15:10:23;;;;;;;;;;;7.90;99.90;;;;;;5094785;28;19960;-76